sensor_id;sensor_type;location;lat;lon;timestamp;temperature;humidity
16578;DHT22;8401;52.528;13.340;2024-03-23T00:55:45;8.60;99.90
16578;DHT22;8401;52.528;13.340;2024-03-23T00:58:11;8.60;99.90
16578;DHT22;8401;52.528;13.340;2024-03-23T01:00:36;8.50;99.90
16578;DHT22;8401;52.528;13.340;2024-03-23T01:03:02;8.50;99.90
16578;DHT22;8401;52.528;13.340;2024-03-23T01:05:28;8.60;99.90
16578;DHT22;8401;52.528;13.340;2024-03-23T01:07:53;8.60;99.90
16578;DHT22;8401;52.528;13.340;2024-03-23T01:10:19;8.70;99.90
16578;DHT22;8401;52.528;13.340;2024-03-23T01:12:48;8.60;99.90
16578;DHT22;8401;52.528;13.340;2024-03-23T01:15:13;8.60;99.90
16578;DHT22;8401;52.528;13.340;2024-03-23T01:17:39;8.50;99.90
16578;DHT22;8401;52.528;13.340;2024-03-23T01:20:05;8.50;99.90
16578;DHT22;8401;52.528;13.340;2024-03-23T01:22:31;8.50;99.90
16578;DHT22;8401;52.528;13.340;2024-03-23T01:24:57;8.60;99.90
16578;DHT22;8401;52.528;13.340;2024-03-23T01:27:23;8.60;99.90
16578;DHT22;8401;52.528;13.340;2024-03-23T01:29:48;8.50;99.90
16578;DHT22;8401;52.528;13.340;2024-03-23T01:32:14;8.50;99.90
16578;DHT22;8401;52.528;13.340;2024-03-23T01:34:39;8.60;99.90
16578;DHT22;8401;52.528;13.340;2024-03-23T01:37:05;8.60;99.90
16578;DHT22;8401;52.528;13.340;2024-03-23T01:39:31;8.50;99.90
16578;DHT22;8401;52.528;13.340;2024-03-23T01:41:56;8.50;99.90
16578;DHT22;8401;52.528;13.340;2024-03-23T01:44:22;8.50;99.90
16578;DHT22;8401;52.528;13.340;2024-03-23T01:46:48;8.50;99.90
16578;DHT22;8401;52.528;13.340;2024-03-23T01:49:14;8.50;99.90
16578;DHT22;8401;52.528;13.340;2024-03-23T01:51:39;8.50;99.90
16578;DHT22;8401;52.528;13.340;2024-03-23T01:54:06;8.40;99.90
16578;DHT22;8401;52.528;13.340;2024-03-23T01:56:33;8.40;99.90
16578;DHT22;8401;52.528;13.340;2024-03-23T01:59:03;8.40;99.90
16578;DHT22;8401;52.528;13.340;2024-03-23T02:01:29;8.50;99.90
16578;DHT22;8401;52.528;13.340;2024-03-23T02:03:55;8.50;99.90
16578;DHT22;8401;52.528;13.340;2024-03-23T02:06:21;8.60;99.90
16578;DHT22;8401;52.528;13.340;2024-03-23T02:08:48;8.50;99.90
16578;DHT22;8401;52.528;13.340;2024-03-23T02:11:14;8.50;99.90
16578;DHT22;8401;52.528;13.340;2024-03-23T02:13:40;8.50;99.90
16578;DHT22;8401;52.528;13.340;2024-03-23T02:16:06;8.50;99.90
16578;DHT22;8401;52.528;13.340;2024-03-23T02:18:32;8.40;99.90
16578;DHT22;8401;52.528;13.340;2024-03-23T02:20:58;8.40;99.90
16578;DHT22;8401;52.528;13.340;2024-03-23T02:23:24;8.40;99.90
16578;DHT22;8401;52.528;13.340;2024-03-23T02:25:50;8.50;99.90
16578;DHT22;8401;52.528;13.340;2024-03-23T02:28:16;8.50;99.90
16578;DHT22;8401;52.528;13.340;2024-03-23T02:30:42;8.50;99.90
16578;DHT22;8401;52.528;13.340;2024-03-23T02:33:08;8.50;99.90
16578;DHT22;8401;52.528;13.340;2024-03-23T02:35:34;8.60;99.90
16578;DHT22;8401;52.528;13.340;2024-03-23T02:38:00;8.50;99.90
16578;DHT22;8401;52.528;13.340;2024-03-23T02:40:26;8.40;99.90
16578;DHT22;8401;52.528;13.340;2024-03-23T02:42:52;8.40;99.90
16578;DHT22;8401;52.528;13.340;2024-03-23T02:45:18;8.40;99.90
16578;DHT22;8401;52.528;13.340;2024-03-23T02:47:43;8.30;99.90
16578;DHT22;8401;52.528;13.340;2024-03-23T02:50:09;8.30;99.90
16578;DHT22;8401;52.528;13.340;2024-03-23T02:52:35;8.30;99.90
16578;DHT22;8401;52.528;13.340;2024-03-23T02:55:02;8.30;99.90
16578;DHT22;8401;52.528;13.340;2024-03-23T02:57:28;8.20;99.90
16578;DHT22;8401;52.528;13.340;2024-03-23T02:59:54;8.30;99.90
16578;DHT22;8401;52.528;13.340;2024-03-23T03:02:20;8.20;99.90
16578;DHT22;8401;52.528;13.340;2024-03-23T03:04:46;8.20;99.90
16578;DHT22;8401;52.528;13.340;2024-03-23T03:07:12;8.30;99.90
16578;DHT22;8401;52.528;13.340;2024-03-23T03:09:38;8.20;99.90
16578;DHT22;8401;52.528;13.340;2024-03-23T03:12:05;8.30;99.90
16578;DHT22;8401;52.528;13.340;2024-03-23T03:14:31;8.20;99.90
16578;DHT22;8401;52.528;13.340;2024-03-23T03:16:56;8.10;99.90
16578;DHT22;8401;52.528;13.340;2024-03-23T03:19:22;8.10;99.90
16578;DHT22;8401;52.528;13.340;2024-03-23T03:21:48;8.10;99.90
16578;DHT22;8401;52.528;13.340;2024-03-23T03:24:13;8.10;99.90
16578;DHT22;8401;52.528;13.340;2024-03-23T03:26:39;8.10;99.90
16578;DHT22;8401;52.528;13.340;2024-03-23T03:29:04;8.10;99.90
16578;DHT22;8401;52.528;13.340;2024-03-23T03:31:30;8.10;99.90
16578;DHT22;8401;52.528;13.340;2024-03-23T03:33:56;8.10;99.90
16578;DHT22;8401;52.528;13.340;2024-03-23T03:36:22;8.10;99.90
16578;DHT22;8401;52.528;13.340;2024-03-23T03:38:47;8.10;99.90
16578;DHT22;8401;52.528;13.340;2024-03-23T03:41:13;8.00;99.90
16578;DHT22;8401;52.528;13.340;2024-03-23T03:43:39;8.00;99.90
16578;DHT22;8401;52.528;13.340;2024-03-23T03:46:04;7.90;99.90
16578;DHT22;8401;52.528;13.340;2024-03-23T03:48:30;8.00;99.90
16578;DHT22;8401;52.528;13.340;2024-03-23T03:50:55;8.00;99.90
16578;DHT22;8401;52.528;13.340;2024-03-23T03:53:21;8.00;99.90
16578;DHT22;8401;52.528;13.340;2024-03-23T03:55:47;8.10;99.90
16578;DHT22;8401;52.528;13.340;2024-03-23T03:58:13;8.00;99.90
16578;DHT22;8401;52.528;13.340;2024-03-23T04:00:38;8.00;99.90
16578;DHT22;8401;52.528;13.340;2024-03-23T04:03:04;8.00;99.90
16578;DHT22;8401;52.528;13.340;2024-03-23T04:05:30;7.80;99.90
16578;DHT22;8401;52.528;13.340;2024-03-23T04:07:55;8.00;99.90
16578;DHT22;8401;52.528;13.340;2024-03-23T04:10:21;7.90;99.90
16578;DHT22;8401;52.528;13.340;2024-03-23T04:12:47;7.90;99.90
16578;DHT22;8401;52.528;13.340;2024-03-23T04:15:13;7.80;99.90
16578;DHT22;8401;52.528;13.340;2024-03-23T04:17:39;7.80;99.90
16578;DHT22;8401;52.528;13.340;2024-03-23T04:20:05;7.80;99.90
16578;DHT22;8401;52.528;13.340;2024-03-23T04:22:34;7.80;99.90
16578;DHT22;8401;52.528;13.340;2024-03-23T04:25:00;7.70;99.90
16578;DHT22;8401;52.528;13.340;2024-03-23T04:27:34;7.70;99.90
16578;DHT22;8401;52.528;13.340;2024-03-23T04:30:01;7.60;99.90
16578;DHT22;8401;52.528;13.340;2024-03-23T04:32:27;7.60;99.90
16578;DHT22;8401;52.528;13.340;2024-03-23T04:34:53;7.60;99.90
16578;DHT22;8401;52.528;13.340;2024-03-23T04:37:20;7.50;99.90
16578;DHT22;8401;52.528;13.340;2024-03-23T04:39:46;7.40;99.90
16578;DHT22;8401;52.528;13.340;2024-03-23T04:42:12;7.40;99.90
16578;DHT22;8401;52.528;13.340;2024-03-23T04:44:37;7.30;99.90
16578;DHT22;8401;52.528;13.340;2024-03-23T04:47:03;7.40;99.90
16578;DHT22;8401;52.528;13.340;2024-03-23T04:49:30;7.30;99.90
16578;DHT22;8401;52.528;13.340;2024-03-23T04:51:56;7.30;99.90
16578;DHT22;8401;52.528;13.340;2024-03-23T04:54:22;7.40;99.90
16578;DHT22;8401;52.528;13.340;2024-03-23T04:56:47;7.40;99.90
16578;DHT22;8401;52.528;13.340;2024-03-23T04:59:13;7.40;99.90
16578;DHT22;8401;52.528;13.340;2024-03-23T05:01:38;7.40;99.90
16578;DHT22;8401;52.528;13.340;2024-03-23T05:04:07;7.40;99.90
16578;DHT22;8401;52.528;13.340;2024-03-23T05:06:33;7.30;99.90
16578;DHT22;8401;52.528;13.340;2024-03-23T05:08:59;7.30;99.90
16578;DHT22;8401;52.528;13.340;2024-03-23T05:11:26;7.30;99.90
16578;DHT22;8401;52.528;13.340;2024-03-23T05:13:52;7.40;99.90
16578;DHT22;8401;52.528;13.340;2024-03-23T05:16:18;7.40;99.90
16578;DHT22;8401;52.528;13.340;2024-03-23T05:18:43;7.50;99.90
16578;DHT22;8401;52.528;13.340;2024-03-23T05:21:09;7.50;99.90
16578;DHT22;8401;52.528;13.340;2024-03-23T05:23:34;7.50;99.90
16578;DHT22;8401;52.528;13.340;2024-03-23T05:26:00;7.50;99.90
16578;DHT22;8401;52.528;13.340;2024-03-23T05:28:26;7.50;99.90
16578;DHT22;8401;52.528;13.340;2024-03-23T05:30:55;7.50;99.90
16578;DHT22;8401;52.528;13.340;2024-03-23T05:33:22;7.50;99.90
16578;DHT22;8401;52.528;13.340;2024-03-23T05:35:56;7.40;99.90
16578;DHT22;8401;52.528;13.340;2024-03-23T05:38:22;7.40;99.90
16578;DHT22;8401;52.528;13.340;2024-03-23T05:40:58;7.50;99.90
16578;DHT22;8401;52.528;13.340;2024-03-23T05:43:24;7.50;99.90
16578;DHT22;8401;52.528;13.340;2024-03-23T05:45:57;7.50;99.90
16578;DHT22;8401;52.528;13.340;2024-03-23T05:48:23;7.50;99.90
16578;DHT22;8401;52.528;13.340;2024-03-23T05:50:50;7.50;99.90
16578;DHT22;8401;52.528;13.340;2024-03-23T05:53:16;7.50;99.90
16578;DHT22;8401;52.528;13.340;2024-03-23T05:55:45;7.40;99.90
16578;DHT22;8401;52.528;13.340;2024-03-23T05:58:11;7.40;99.90
16578;DHT22;8401;52.528;13.340;2024-03-23T06:00:36;7.40;99.90
16578;DHT22;8401;52.528;13.340;2024-03-23T06:03:02;7.40;99.90
16578;DHT22;8401;52.528;13.340;2024-03-23T06:05:28;7.30;99.90
16578;DHT22;8401;52.528;13.340;2024-03-23T06:07:53;7.30;99.90
16578;DHT22;8401;52.528;13.340;2024-03-23T06:10:19;7.30;99.90
16578;DHT22;8401;52.528;13.340;2024-03-23T06:12:46;7.30;99.90
16578;DHT22;8401;52.528;13.340;2024-03-23T06:15:11;7.30;99.90
16578;DHT22;8401;52.528;13.340;2024-03-23T06:17:37;7.40;99.90
16578;DHT22;8401;52.528;13.340;2024-03-23T06:20:04;7.30;99.90
16578;DHT22;8401;52.528;13.340;2024-03-23T06:22:31;7.30;99.90
16578;DHT22;8401;52.528;13.340;2024-03-23T06:24:57;7.20;99.90
16578;DHT22;8401;52.528;13.340;2024-03-23T06:27:23;7.20;99.90
16578;DHT22;8401;52.528;13.340;2024-03-23T06:29:48;7.40;99.90
16578;DHT22;8401;52.528;13.340;2024-03-23T06:32:14;7.40;99.90
16578;DHT22;8401;52.528;13.340;2024-03-23T06:34:43;7.40;99.90
16578;DHT22;8401;52.528;13.340;2024-03-23T06:37:08;7.40;99.90
16578;DHT22;8401;52.528;13.340;2024-03-23T06:39:36;7.50;99.90
16578;DHT22;8401;52.528;13.340;2024-03-23T06:42:02;7.50;99.90
16578;DHT22;8401;52.528;13.340;2024-03-23T06:44:28;7.40;99.90
16578;DHT22;8401;52.528;13.340;2024-03-23T06:46:54;7.30;99.90
16578;DHT22;8401;52.528;13.340;2024-03-23T06:49:20;7.40;99.90
16578;DHT22;8401;52.528;13.340;2024-03-23T06:51:45;7.40;99.90
16578;DHT22;8401;52.528;13.340;2024-03-23T06:54:11;7.30;99.90
16578;DHT22;8401;52.528;13.340;2024-03-23T06:56:37;7.40;99.90
16578;DHT22;8401;52.528;13.340;2024-03-23T06:59:03;7.50;99.90
16578;DHT22;8401;52.528;13.340;2024-03-23T07:01:28;7.50;99.90
16578;DHT22;8401;52.528;13.340;2024-03-23T07:03:57;7.50;99.90
16578;DHT22;8401;52.528;13.340;2024-03-23T07:06:22;7.70;99.90
16578;DHT22;8401;52.528;13.340;2024-03-23T07:08:48;7.60;99.90
16578;DHT22;8401;52.528;13.340;2024-03-23T07:11:26;7.50;99.90
16578;DHT22;8401;52.528;13.340;2024-03-23T07:13:53;7.50;99.90
16578;DHT22;8401;52.528;13.340;2024-03-23T07:16:22;7.50;99.90
16578;DHT22;8401;52.528;13.340;2024-03-23T07:18:49;7.60;99.90
16578;DHT22;8401;52.528;13.340;2024-03-23T07:21:15;7.50;99.90
16578;DHT22;8401;52.528;13.340;2024-03-23T07:23:42;7.50;99.90
16578;DHT22;8401;52.528;13.340;2024-03-23T07:26:11;7.40;99.90
16578;DHT22;8401;52.528;13.340;2024-03-23T07:28:37;7.60;99.90
16578;DHT22;8401;52.528;13.340;2024-03-23T07:31:08;7.60;99.90
16578;DHT22;8401;52.528;13.340;2024-03-23T07:36:09;7.90;99.90
16578;DHT22;8401;52.528;13.340;2024-03-23T07:38:35;7.80;99.90
16578;DHT22;8401;52.528;13.340;2024-03-23T07:41:09;7.80;99.90
16578;DHT22;8401;52.528;13.340;2024-03-23T07:43:37;7.70;99.90
16578;DHT22;8401;52.528;13.340;2024-03-23T07:46:03;7.70;99.90
16578;DHT22;8401;52.528;13.340;2024-03-23T07:48:30;8.00;99.90
16578;DHT22;8401;52.528;13.340;2024-03-23T07:51:08;8.00;99.90
16578;DHT22;8401;52.528;13.340;2024-03-23T07:53:34;7.90;99.90
16578;DHT22;8401;52.528;13.340;2024-03-23T07:56:03;7.70;99.90
16578;DHT22;8401;52.528;13.340;2024-03-23T07:58:29;7.70;99.90
16578;DHT22;8401;52.528;13.340;2024-03-23T08:00:56;7.60;99.90
16578;DHT22;8401;52.528;13.340;2024-03-23T08:03:22;7.70;99.90
16578;DHT22;8401;52.528;13.340;2024-03-23T08:05:48;7.70;99.90
16578;DHT22;8401;52.528;13.340;2024-03-23T08:08:14;7.60;99.90
16578;DHT22;8401;52.528;13.340;2024-03-23T08:10:52;7.60;99.90
16578;DHT22;8401;52.528;13.340;2024-03-23T08:13:19;7.40;99.90
16578;DHT22;8401;52.528;13.340;2024-03-23T08:15:45;7.30;99.90
16578;DHT22;8401;52.528;13.340;2024-03-23T08:18:12;7.30;99.90
16578;DHT22;8401;52.528;13.340;2024-03-23T08:20:38;7.30;99.90
16578;DHT22;8401;52.528;13.340;2024-03-23T08:23:05;7.30;99.90
16578;DHT22;8401;52.528;13.340;2024-03-23T08:25:31;7.40;99.90
16578;DHT22;8401;52.528;13.340;2024-03-23T08:27:57;7.40;99.90
16578;DHT22;8401;52.528;13.340;2024-03-23T08:30:23;7.10;99.90
16578;DHT22;8401;52.528;13.340;2024-03-23T08:32:49;7.00;99.90
16578;DHT22;8401;52.528;13.340;2024-03-23T08:35:14;7.00;99.90
16578;DHT22;8401;52.528;13.340;2024-03-23T08:37:40;6.90;99.90
16578;DHT22;8401;52.528;13.340;2024-03-23T08:40:06;6.90;99.90
16578;DHT22;8401;52.528;13.340;2024-03-23T08:42:34;7.00;99.90
16578;DHT22;8401;52.528;13.340;2024-03-23T08:44:59;6.90;99.90
16578;DHT22;8401;52.528;13.340;2024-03-23T08:47:25;7.10;99.90
16578;DHT22;8401;52.528;13.340;2024-03-23T08:49:51;7.00;99.90
16578;DHT22;8401;52.528;13.340;2024-03-23T08:52:16;7.00;99.90
16578;DHT22;8401;52.528;13.340;2024-03-23T08:54:42;6.80;99.90
16578;DHT22;8401;52.528;13.340;2024-03-23T08:57:08;6.90;99.90
16578;DHT22;8401;52.528;13.340;2024-03-23T08:59:34;6.70;99.90
16578;DHT22;8401;52.528;13.340;2024-03-23T09:02:00;6.60;99.90
16578;DHT22;8401;52.528;13.340;2024-03-23T09:04:25;6.60;99.90
16578;DHT22;8401;52.528;13.340;2024-03-23T09:06:51;6.70;99.90
16578;DHT22;8401;52.528;13.340;2024-03-23T09:09:17;6.70;99.90
16578;DHT22;8401;52.528;13.340;2024-03-23T09:11:43;6.70;99.90
16578;DHT22;8401;52.528;13.340;2024-03-23T09:14:08;6.50;99.90
16578;DHT22;8401;52.528;13.340;2024-03-23T09:16:34;6.40;99.90
16578;DHT22;8401;52.528;13.340;2024-03-23T09:19:00;6.40;99.90
16578;DHT22;8401;52.528;13.340;2024-03-23T09:21:26;6.20;99.90
16578;DHT22;8401;52.528;13.340;2024-03-23T09:23:51;6.40;99.90
16578;DHT22;8401;52.528;13.340;2024-03-23T09:26:17;6.40;99.90
16578;DHT22;8401;52.528;13.340;2024-03-23T09:28:43;6.30;99.90
16578;DHT22;8401;52.528;13.340;2024-03-23T09:31:09;6.50;99.90
16578;DHT22;8401;52.528;13.340;2024-03-23T09:33:39;6.40;99.90
16578;DHT22;8401;52.528;13.340;2024-03-23T09:36:06;6.40;99.90
16578;DHT22;8401;52.528;13.340;2024-03-23T09:38:32;6.30;99.90
16578;DHT22;8401;52.528;13.340;2024-03-23T09:40:58;6.30;99.90
16578;DHT22;8401;52.528;13.340;2024-03-23T09:43:24;6.40;99.90
16578;DHT22;8401;52.528;13.340;2024-03-23T09:45:50;6.40;99.90
16578;DHT22;8401;52.528;13.340;2024-03-23T09:48:17;6.50;99.90
16578;DHT22;8401;52.528;13.340;2024-03-23T09:50:43;6.40;99.90
16578;DHT22;8401;52.528;13.340;2024-03-23T09:53:11;6.60;99.90
16578;DHT22;8401;52.528;13.340;2024-03-23T09:55:37;6.60;99.90
16578;DHT22;8401;52.528;13.340;2024-03-23T09:58:04;6.70;99.90
16578;DHT22;8401;52.528;13.340;2024-03-23T10:00:34;6.50;99.90
16578;DHT22;8401;52.528;13.340;2024-03-23T10:03:00;6.40;99.90
16578;DHT22;8401;52.528;13.340;2024-03-23T10:05:30;6.30;99.90
16578;DHT22;8401;52.528;13.340;2024-03-23T10:10:40;6.40;99.90
16578;DHT22;8401;52.528;13.340;2024-03-23T10:13:06;6.30;99.90
16578;DHT22;8401;52.528;13.340;2024-03-23T10:15:34;6.40;99.90
16578;DHT22;8401;52.528;13.340;2024-03-23T10:18:19;6.20;99.90
16578;DHT22;8401;52.528;13.340;2024-03-23T10:23:30;6.20;99.90
16578;DHT22;8401;52.528;13.340;2024-03-23T10:31:18;6.30;99.90
16578;DHT22;8401;52.528;13.340;2024-03-23T10:33:48;6.10;99.90
16578;DHT22;8401;52.528;13.340;2024-03-23T10:36:14;6.20;99.90
16578;DHT22;8401;52.528;13.340;2024-03-23T10:38:43;6.00;99.90
16578;DHT22;8401;52.528;13.340;2024-03-23T10:41:10;6.10;99.90
16578;DHT22;8401;52.528;13.340;2024-03-23T10:43:37;6.10;99.90
16578;DHT22;8401;52.528;13.340;2024-03-23T10:46:03;5.90;99.90
16578;DHT22;8401;52.528;13.340;2024-03-23T10:48:29;6.10;99.90
16578;DHT22;8401;52.528;13.340;2024-03-23T10:50:55;6.00;99.90
16578;DHT22;8401;52.528;13.340;2024-03-23T10:53:22;6.10;99.90
16578;DHT22;8401;52.528;13.340;2024-03-23T10:55:51;6.10;99.90
16578;DHT22;8401;52.528;13.340;2024-03-23T10:58:23;6.20;99.90
16578;DHT22;8401;52.528;13.340;2024-03-23T11:00:50;6.20;99.90
16578;DHT22;8401;52.528;13.340;2024-03-23T11:03:35;6.40;99.90
16578;DHT22;8401;52.528;13.340;2024-03-23T11:06:05;6.50;99.90
16578;DHT22;8401;52.528;13.340;2024-03-23T11:08:33;6.60;99.90
16578;DHT22;8401;52.528;13.340;2024-03-23T11:11:17;6.70;99.90
16578;DHT22;8401;52.528;13.340;2024-03-23T11:13:44;6.80;99.90
16578;DHT22;8401;52.528;13.340;2024-03-23T11:16:14;6.70;99.90
16578;DHT22;8401;52.528;13.340;2024-03-23T11:18:40;6.80;99.90
16578;DHT22;8401;52.528;13.340;2024-03-23T11:21:07;6.80;99.90
16578;DHT22;8401;52.528;13.340;2024-03-23T11:23:33;6.80;99.90
16578;DHT22;8401;52.528;13.340;2024-03-23T11:25:59;6.90;99.90
16578;DHT22;8401;52.528;13.340;2024-03-23T11:28:24;7.00;99.90
16578;DHT22;8401;52.528;13.340;2024-03-23T11:30:50;6.90;99.90
16578;DHT22;8401;52.528;13.340;2024-03-23T11:33:16;7.00;99.90
16578;DHT22;8401;52.528;13.340;2024-03-23T11:35:41;7.10;99.90
16578;DHT22;8401;52.528;13.340;2024-03-23T11:40:44;7.40;99.90
16578;DHT22;8401;52.528;13.340;2024-03-23T11:43:20;7.50;99.90
16578;DHT22;8401;52.528;13.340;2024-03-23T11:45:52;7.50;99.90
16578;DHT22;8401;52.528;13.340;2024-03-23T11:48:20;7.70;99.90
16578;DHT22;8401;52.528;13.340;2024-03-23T11:50:57;7.80;99.90
16578;DHT22;8401;52.528;13.340;2024-03-23T11:53:24;8.00;99.90
16578;DHT22;8401;52.528;13.340;2024-03-23T11:55:51;8.00;99.90
16578;DHT22;8401;52.528;13.340;2024-03-23T11:58:21;8.00;99.90
16578;DHT22;8401;52.528;13.340;2024-03-23T12:01:00;7.90;99.90
16578;DHT22;8401;52.528;13.340;2024-03-23T12:03:30;7.80;99.90
16578;DHT22;8401;52.528;13.340;2024-03-23T12:05:58;8.00;99.90
16578;DHT22;8401;52.528;13.340;2024-03-23T12:08:31;7.80;99.90
16578;DHT22;8401;52.528;13.340;2024-03-23T12:11:12;7.60;99.90
16578;DHT22;8401;52.528;13.340;2024-03-23T12:13:39;7.80;99.90
16578;DHT22;8401;52.528;13.340;2024-03-23T12:18:36;7.60;99.90
16578;DHT22;8401;52.528;13.340;2024-03-23T12:21:01;7.50;99.90
16578;DHT22;8401;52.528;13.340;2024-03-23T12:23:28;7.40;99.90
16578;DHT22;8401;52.528;13.340;2024-03-23T12:25:53;7.50;99.90
16578;DHT22;8401;52.528;13.340;2024-03-23T12:28:19;7.50;99.90
16578;DHT22;8401;52.528;13.340;2024-03-23T12:30:45;7.60;99.90
16578;DHT22;8401;52.528;13.340;2024-03-23T12:33:10;7.70;99.90
16578;DHT22;8401;52.528;13.340;2024-03-23T12:35:36;7.80;99.90
16578;DHT22;8401;52.528;13.340;2024-03-23T12:38:02;8.20;99.90
16578;DHT22;8401;52.528;13.340;2024-03-23T12:40:28;8.20;99.90
16578;DHT22;8401;52.528;13.340;2024-03-23T12:42:54;8.00;99.90
16578;DHT22;8401;52.528;13.340;2024-03-23T12:45:19;8.00;99.90
16578;DHT22;8401;52.528;13.340;2024-03-23T12:47:45;7.60;99.90
16578;DHT22;8401;52.528;13.340;2024-03-23T12:50:11;7.70;99.90
16578;DHT22;8401;52.528;13.340;2024-03-23T12:52:37;7.70;99.90
16578;DHT22;8401;52.528;13.340;2024-03-23T12:55:03;7.80;99.90
16578;DHT22;8401;52.528;13.340;2024-03-23T12:57:31;7.80;99.90
16578;DHT22;8401;52.528;13.340;2024-03-23T12:59:57;7.70;99.90
16578;DHT22;8401;52.528;13.340;2024-03-23T13:02:23;7.80;99.90
16578;DHT22;8401;52.528;13.340;2024-03-23T13:04:53;8.10;99.90
16578;DHT22;8401;52.528;13.340;2024-03-23T13:07:19;8.20;99.90
16578;DHT22;8401;52.528;13.340;2024-03-23T13:09:45;8.40;99.90
16578;DHT22;8401;52.528;13.340;2024-03-23T13:12:11;8.60;99.90
16578;DHT22;8401;52.528;13.340;2024-03-23T13:14:41;8.60;99.90
16578;DHT22;8401;52.528;13.340;2024-03-23T13:17:07;8.60;99.90
16578;DHT22;8401;52.528;13.340;2024-03-23T13:19:33;8.70;99.90
16578;DHT22;8401;52.528;13.340;2024-03-23T13:22:00;8.70;99.90
16578;DHT22;8401;52.528;13.340;2024-03-23T13:24:29;8.80;99.90
16578;DHT22;8401;52.528;13.340;2024-03-23T13:26:55;9.00;99.90
16578;DHT22;8401;52.528;13.340;2024-03-23T13:29:22;8.90;99.90
16578;DHT22;8401;52.528;13.340;2024-03-23T13:31:48;9.20;99.90
16578;DHT22;8401;52.528;13.340;2024-03-23T13:34:14;9.60;99.90
16578;DHT22;8401;52.528;13.340;2024-03-23T13:36:44;9.60;99.90
16578;DHT22;8401;52.528;13.340;2024-03-23T13:39:11;9.70;99.90
16578;DHT22;8401;52.528;13.340;2024-03-23T13:41:40;9.40;99.90
16578;DHT22;8401;52.528;13.340;2024-03-23T13:44:07;9.50;99.90
16578;DHT22;8401;52.528;13.340;2024-03-23T13:46:33;9.50;99.90
16578;DHT22;8401;52.528;13.340;2024-03-23T13:48:59;9.40;99.90
16578;DHT22;8401;52.528;13.340;2024-03-23T13:51:25;9.90;99.90
16578;DHT22;8401;52.528;13.340;2024-03-23T13:53:55;10.20;99.90
16578;DHT22;8401;52.528;13.340;2024-03-23T13:56:22;10.30;99.90
16578;DHT22;8401;52.528;13.340;2024-03-23T13:58:48;10.60;99.90
16578;DHT22;8401;52.528;13.340;2024-03-23T14:01:17;10.50;99.90
16578;DHT22;8401;52.528;13.340;2024-03-23T14:03:43;10.60;99.90
16578;DHT22;8401;52.528;13.340;2024-03-23T14:06:09;10.50;99.90
16578;DHT22;8401;52.528;13.340;2024-03-23T14:08:36;10.50;99.90
16578;DHT22;8401;52.528;13.340;2024-03-23T14:11:08;10.30;99.90
16578;DHT22;8401;52.528;13.340;2024-03-23T14:13:37;9.90;99.90
16578;DHT22;8401;52.528;13.340;2024-03-23T14:16:03;9.70;99.90
16578;DHT22;8401;52.528;13.340;2024-03-23T14:18:29;9.50;99.90
16578;DHT22;8401;52.528;13.340;2024-03-23T14:20:59;9.30;99.90
16578;DHT22;8401;52.528;13.340;2024-03-23T14:23:29;9.20;99.90
16578;DHT22;8401;52.528;13.340;2024-03-23T14:25:59;9.20;99.90
16578;DHT22;8401;52.528;13.340;2024-03-23T14:28:25;9.10;99.90
16578;DHT22;8401;52.528;13.340;2024-03-23T14:30:51;9.10;99.90
16578;DHT22;8401;52.528;13.340;2024-03-23T14:33:17;9.00;99.90
16578;DHT22;8401;52.528;13.340;2024-03-23T14:35:51;9.00;99.90
16578;DHT22;8401;52.528;13.340;2024-03-23T14:38:18;9.00;99.90
16578;DHT22;8401;52.528;13.340;2024-03-23T14:40:44;8.90;99.90
16578;DHT22;8401;52.528;13.340;2024-03-23T14:43:10;8.70;99.90
16578;DHT22;8401;52.528;13.340;2024-03-23T14:45:35;8.70;99.90
16578;DHT22;8401;52.528;13.340;2024-03-23T14:48:02;8.50;99.90
16578;DHT22;8401;52.528;13.340;2024-03-23T14:50:28;8.30;99.90
16578;DHT22;8401;52.528;13.340;2024-03-23T14:52:53;8.00;99.90
16578;DHT22;8401;52.528;13.340;2024-03-23T14:55:19;7.50;99.90
16578;DHT22;8401;52.528;13.340;2024-03-23T14:57:45;6.90;99.90
16578;DHT22;8401;52.528;13.340;2024-03-23T15:00:11;6.70;99.90
16578;DHT22;8401;52.528;13.340;2024-03-23T15:02:37;6.70;99.90
16578;DHT22;8401;52.528;13.340;2024-03-23T15:05:04;6.60;99.90
16578;DHT22;8401;52.528;13.340;2024-03-23T15:07:33;6.70;99.90
16578;DHT22;8401;52.528;13.340;2024-03-23T15:09:59;6.90;99.90
16578;DHT22;8401;52.528;13.340;2024-03-23T15:12:24;7.30;99.90
16578;DHT22;8401;52.528;13.340;2024-03-23T15:14:50;7.70;99.90
16578;DHT22;8401;52.528;13.340;2024-03-23T15:17:16;8.00;99.90
16578;DHT22;8401;52.528;13.340;2024-03-23T15:19:42;8.00;99.90
16578;DHT22;8401;52.528;13.340;2024-03-23T15:22:08;8.20;99.90
16578;DHT22;8401;52.528;13.340;2024-03-23T15:24:37;8.20;99.90
16578;DHT22;8401;52.528;13.340;2024-03-23T15:27:03;8.10;99.90
16578;DHT22;8401;52.528;13.340;2024-03-23T15:29:29;8.10;99.90
16578;DHT22;8401;52.528;13.340;2024-03-23T15:31:55;8.00;99.90
16578;DHT22;8401;52.528;13.340;2024-03-23T15:34:20;8.10;99.90
16578;DHT22;8401;52.528;13.340;2024-03-23T15:36:49;8.20;99.90
16578;DHT22;8401;52.528;13.340;2024-03-23T15:39:18;8.30;99.90
16578;DHT22;8401;52.528;13.340;2024-03-23T15:41:47;8.30;99.90
16578;DHT22;8401;52.528;13.340;2024-03-23T15:44:13;8.20;99.90
16578;DHT22;8401;52.528;13.340;2024-03-23T15:46:38;8.30;99.90
16578;DHT22;8401;52.528;13.340;2024-03-23T15:49:04;8.20;99.90
16578;DHT22;8401;52.528;13.340;2024-03-23T15:51:31;8.40;99.90
16578;DHT22;8401;52.528;13.340;2024-03-23T15:54:01;8.60;99.90
16578;DHT22;8401;52.528;13.340;2024-03-23T15:56:29;8.40;99.90
16578;DHT22;8401;52.528;13.340;2024-03-23T15:58:54;8.50;99.90
16578;DHT22;8401;52.528;13.340;2024-03-23T16:01:20;8.30;99.90
16578;DHT22;8401;52.528;13.340;2024-03-23T16:03:46;8.40;99.90
16578;DHT22;8401;52.528;13.340;2024-03-23T16:06:11;8.60;99.90
16578;DHT22;8401;52.528;13.340;2024-03-23T16:08:37;8.50;99.90
16578;DHT22;8401;52.528;13.340;2024-03-23T16:11:05;8.50;99.90
16578;DHT22;8401;52.528;13.340;2024-03-23T16:13:32;8.50;99.90
16578;DHT22;8401;52.528;13.340;2024-03-23T16:15:59;8.50;99.90
16578;DHT22;8401;52.528;13.340;2024-03-23T16:18:25;8.50;99.90
16578;DHT22;8401;52.528;13.340;2024-03-23T16:20:59;8.40;99.90
16578;DHT22;8401;52.528;13.340;2024-03-23T16:23:25;8.40;99.90
16578;DHT22;8401;52.528;13.340;2024-03-23T16:25:52;8.40;99.90
16578;DHT22;8401;52.528;13.340;2024-03-23T16:28:36;8.30;99.90
16578;DHT22;8401;52.528;13.340;2024-03-23T16:31:06;8.20;99.90
16578;DHT22;8401;52.528;13.340;2024-03-23T16:33:32;8.10;99.90
16578;DHT22;8401;52.528;13.340;2024-03-23T16:36:00;8.10;99.90
16578;DHT22;8401;52.528;13.340;2024-03-23T16:38:26;8.20;99.90
16578;DHT22;8401;52.528;13.340;2024-03-23T16:41:05;8.20;99.90
16578;DHT22;8401;52.528;13.340;2024-03-23T16:43:32;8.20;99.90
16578;DHT22;8401;52.528;13.340;2024-03-23T16:46:08;8.20;99.90
16578;DHT22;8401;52.528;13.340;2024-03-23T16:48:38;8.20;99.90
16578;DHT22;8401;52.528;13.340;2024-03-23T16:51:04;8.20;99.90
16578;DHT22;8401;52.528;13.340;2024-03-23T16:53:31;8.10;99.90
16578;DHT22;8401;52.528;13.340;2024-03-23T16:56:04;8.10;99.90